Time;durP1;ratioP1;P1;durP2;ratioP2;P2;SDS_P1;SDS_P2;PMS_P1;PMS_P2;Temp;Humidity;BMP_temperature;BMP_pressure;BME280_temperature;BME280_humidity;BME280_pressure;Samples;Min_cycle;Max_cycle;Signal;HPM_P1;HPM_P2
2021/01/18 09:24:19;;;;;;;166.77;64.28;;;;;;;;;;3240798;23;20150;-78
2021/01/18 09:30:08;;;;;;;112.18;49.22;;;;;;;;;;4983210;23;20054;-77
2021/01/18 09:32:38;;;;;;;116.88;49.42;;;;;;;;;;4940083;29;20043;-76
2021/01/18 09:35:04;;;;;;;132.95;54.30;;;;;;;;;;4943334;29;20027;-77
2021/01/18 09:37:31;;;;;;;138.48;55.53;;;;;;;;;;4943476;29;20032;-77
2021/01/18 09:39:57;;;;;;;116.38;49.08;;;;;;;;;;4926712;29;20398;-77
2021/01/18 09:42:23;;;;;;;134.00;57.30;;;;;;;;;;4943502;29;20028;-77
2021/01/18 09:44:49;;;;;;;112.90;47.13;;;;;;;;;;4942924;29;20023;-76
2021/01/18 09:47:16;;;;;;;108.60;48.13;;;;;;;;;;4942644;29;20372;-76
2021/01/18 09:49:42;;;;;;;114.60;47.50;;;;;;;;;;4942492;29;20474;-77
2021/01/18 09:52:09;;;;;;;109.88;50.90;;;;;;;;;;4934268;29;20054;-77
2021/01/18 09:54:39;;;;;;;117.18;51.80;;;;;;;;;;4924233;29;20028;-76
2021/01/18 09:57:10;;;;;;;121.25;54.33;;;;;;;;;;4924369;29;20048;-77
2021/01/18 09:59:40;;;;;;;108.10;46.67;;;;;;;;;;4923599;29;20306;-76
2021/01/18 10:02:06;;;;;;;79.40;38.33;;;;;;;;;;4923764;29;20028;-77
2021/01/18 10:04:36;;;;;;;62.55;29.80;;;;;;;;;;4924059;29;20055;-77
2021/01/18 10:07:06;;;;;;;63.22;30.35;;;;;;;;;;4924426;29;20039;-77
2021/01/18 10:09:34;;;;;;;69.90;31.40;;;;;;;;;;4923704;29;20105;-77
2021/01/18 10:12:00;;;;;;;63.42;31.52;;;;;;;;;;4923807;29;20024;-77
2021/01/18 10:14:30;;;;;;;79.53;34.70;;;;;;;;;;4924295;29;20024;-77
2021/01/18 10:17:04;;;;;;;68.57;32.38;;;;;;;;;;4923863;29;20347;-77
2021/01/18 10:19:30;;;;;;;61.55;29.23;;;;;;;;;;4924163;29;20038;-77
2021/01/18 10:21:56;;;;;;;78.30;32.72;;;;;;;;;;4925913;29;20088;-76
2021/01/18 10:24:29;;;;;;;72.10;31.75;;;;;;;;;;4923125;29;20036;-76
2021/01/18 10:27:01;;;;;;;61.22;30.27;;;;;;;;;;4923676;29;20055;-77
2021/01/18 10:29:28;;;;;;;68.85;30.90;;;;;;;;;;4924573;29;20483;-76
2021/01/18 10:31:56;;;;;;;64.35;29.50;;;;;;;;;;4922934;29;20060;-77
2021/01/18 10:34:22;;;;;;;75.25;35.30;;;;;;;;;;4924987;29;20063;-77
2021/01/18 10:36:49;;;;;;;81.93;35.40;;;;;;;;;;4923886;29;20071;-77
2021/01/18 10:39:28;;;;;;;94.28;40.35;;;;;;;;;;4923815;29;20110;-77
2021/01/18 10:42:02;;;;;;;86.78;39.78;;;;;;;;;;4923834;29;20027;-77
2021/01/18 10:44:28;;;;;;;62.25;29.98;;;;;;;;;;4923744;29;20027;-77
2021/01/18 10:46:54;;;;;;;63.80;29.58;;;;;;;;;;4908406;29;20300;-77
2021/01/18 10:49:27;;;;;;;64.95;29.35;;;;;;;;;;4909098;29;20024;-77
2021/01/18 10:52:12;;;;;;;57.00;27.98;;;;;;;;;;4923870;29;20036;-77
2021/01/18 10:54:38;;;;;;;44.50;22.02;;;;;;;;;;4924747;29;20043;-77
2021/01/18 10:57:22;;;;;;;36.40;19.30;;;;;;;;;;4924720;29;20024;-76
2021/01/18 11:00:08;;;;;;;48.70;22.15;;;;;;;;;;4923948;29;20036;-77
2021/01/18 11:02:35;;;;;;;48.38;22.85;;;;;;;;;;4923150;29;20035;-77
2021/01/18 11:05:02;;;;;;;43.00;22.15;;;;;;;;;;4924128;29;20032;-76
2021/01/18 11:07:31;;;;;;;36.85;19.05;;;;;;;;;;4924592;29;20056;-77
2021/01/18 11:09:58;;;;;;;38.33;19.83;;;;;;;;;;4922855;29;20028;-75
2021/01/18 11:12:31;;;;;;;38.78;19.65;;;;;;;;;;4921021;29;20056;-76
2021/01/18 11:15:01;;;;;;;55.35;29.63;;;;;;;;;;4920491;29;20412;-76
2021/01/18 11:17:28;;;;;;;61.65;28.80;;;;;;;;;;4920819;29;20407;-76
2021/01/18 11:19:54;;;;;;;49.00;23.60;;;;;;;;;;4904034;29;20028;-76
2021/01/18 11:22:20;;;;;;;46.33;22.42;;;;;;;;;;4921068;29;20054;-76
2021/01/18 11:24:46;;;;;;;52.53;24.65;;;;;;;;;;4903698;29;20427;-76
2021/01/18 11:27:12;;;;;;;53.35;24.63;;;;;;;;;;4920712;29;20541;-76
2021/01/18 11:29:39;;;;;;;73.95;29.63;;;;;;;;;;4920822;29;20032;-76
2021/01/18 11:32:05;;;;;;;88.38;35.90;;;;;;;;;;4924415;29;20059;-76
2021/01/18 11:34:31;;;;;;;76.00;32.60;;;;;;;;;;4921547;29;20422;-76
2021/01/18 11:37:04;;;;;;;76.88;30.15;;;;;;;;;;4920339;29;20091;-76
2021/01/18 11:39:30;;;;;;;102.45;35.20;;;;;;;;;;4902232;29;20033;-77
2021/01/18 11:41:58;;;;;;;92.57;35.20;;;;;;;;;;4903472;29;20028;-76
2021/01/18 11:44:24;;;;;;;94.10;30.42;;;;;;;;;;4889310;29;20084;-77
2021/01/18 11:46:54;;;;;;;87.53;31.88;;;;;;;;;;4889193;29;20408;-76
2021/01/18 11:49:20;;;;;;;66.60;28.63;;;;;;;;;;4889198;29;20031;-77
2021/01/18 11:51:46;;;;;;;40.75;20.23;;;;;;;;;;4905126;29;20052;-76
2021/01/18 11:54:12;;;;;;;42.65;21.35;;;;;;;;;;4889748;29;20320;-77
2021/01/18 11:56:38;;;;;;;44.90;22.88;;;;;;;;;;4889254;29;20044;-76
2021/01/18 11:59:04;;;;;;;42.45;22.52;;;;;;;;;;4889114;29;20033;-77
2021/01/18 12:01:31;;;;;;;50.08;23.92;;;;;;;;;;4913707;29;20036;-76
2021/01/18 12:03:57;;;;;;;44.22;20.98;;;;;;;;;;4924579;29;20032;-76
2021/01/18 12:06:23;;;;;;;49.65;24.52;;;;;;;;;;4923645;29;20115;-77
2021/01/18 12:08:50;;;;;;;46.30;24.15;;;;;;;;;;4907367;29;20035;-77
2021/01/18 12:11:16;;;;;;;54.72;27.77;;;;;;;;;;4906970;29;20419;-77
2021/01/18 12:13:42;;;;;;;50.70;26.50;;;;;;;;;;4907021;29;20054;-76
2021/01/18 12:16:08;;;;;;;54.78;26.88;;;;;;;;;;4923578;29;20032;-76
2021/01/18 12:18:34;;;;;;;53.45;27.63;;;;;;;;;;4907057;29;20132;-76
2021/01/18 12:21:00;;;;;;;49.33;25.83;;;;;;;;;;4923246;29;20020;-76
2021/01/18 12:23:26;;;;;;;46.33;25.20;;;;;;;;;;4923878;29;20024;-76
2021/01/18 12:25:52;;;;;;;51.00;25.25;;;;;;;;;;4923292;29;20107;-76
2021/01/18 12:28:18;;;;;;;56.53;29.63;;;;;;;;;;4923706;29;20121;-76
2021/01/18 12:35:59;;;;;;;58.65;31.90;;;;;;;;;;4943330;29;20051;-78
2021/01/18 12:38:25;;;;;;;61.33;31.98;;;;;;;;;;4927769;29;20059;-77
2021/01/18 12:40:51;;;;;;;51.72;28.13;;;;;;;;;;4941868;29;20054;-78
2021/01/18 12:43:17;;;;;;;48.63;28.48;;;;;;;;;;4943942;29;20016;-78
2021/01/18 12:45:44;;;;;;;48.92;26.10;;;;;;;;;;4943381;29;20057;-77
2021/01/18 12:48:10;;;;;;;46.47;24.92;;;;;;;;;;4943895;29;20023;-78
2021/01/18 12:50:37;;;;;;;48.20;26.17;;;;;;;;;;4927659;29;20114;-77
2021/01/18 12:53:04;;;;;;;51.13;28.33;;;;;;;;;;4928166;29;20090;-78
2021/01/18 12:55:30;;;;;;;64.57;32.92;;;;;;;;;;4944600;29;20020;-78
2021/01/18 12:57:56;;;;;;;56.75;30.52;;;;;;;;;;4926662;29;20067;-79
2021/01/18 13:00:23;;;;;;;60.67;30.73;;;;;;;;;;4941496;29;20031;-78
2021/01/18 13:02:49;;;;;;;56.40;31.02;;;;;;;;;;4941443;29;20155;-79
2021/01/18 13:05:15;;;;;;;64.30;33.00;;;;;;;;;;4942185;29;20043;-78
2021/01/18 13:07:45;;;;;;;70.00;33.88;;;;;;;;;;4943177;29;20031;-78
2021/01/18 13:10:12;;;;;;;56.88;30.23;;;;;;;;;;4942078;29;20035;-77
2021/01/18 13:12:38;;;;;;;52.50;28.05;;;;;;;;;;4924255;29;20036;-78
2021/01/18 13:15:04;;;;;;;56.90;30.70;;;;;;;;;;4941199;29;20023;-79
2021/01/18 13:17:30;;;;;;;62.60;33.97;;;;;;;;;;4941320;29;20071;-79
2021/01/18 13:19:57;;;;;;;53.65;30.67;;;;;;;;;;4941262;29;20028;-80
2021/01/18 13:22:23;;;;;;;57.05;30.80;;;;;;;;;;4941265;29;20046;-79
2021/01/18 13:24:49;;;;;;;58.35;31.10;;;;;;;;;;4941323;29;20028;-78
2021/01/18 13:27:17;;;;;;;57.40;31.70;;;;;;;;;;4939658;29;20063;-79
2021/01/18 13:29:44;;;;;;;60.22;32.55;;;;;;;;;;4940846;29;20083;-80
2021/01/18 13:32:10;;;;;;;67.72;37.08;;;;;;;;;;4940966;29;20091;-80
2021/01/18 13:34:36;;;;;;;74.90;39.78;;;;;;;;;;4923493;29;20060;-79
2021/01/18 13:37:02;;;;;;;77.35;38.30;;;;;;;;;;4941021;29;20031;-78
2021/01/18 13:39:28;;;;;;;84.82;41.83;;;;;;;;;;4940801;29;20425;-80
2021/01/18 13:41:54;;;;;;;96.30;45.65;;;;;;;;;;4940716;29;20043;-78
2021/01/18 13:44:22;;;;;;;106.60;52.22;;;;;;;;;;4940905;29;20042;-79
2021/01/18 13:46:48;;;;;;;97.88;52.33;;;;;;;;;;4940965;29;20027;-82
2021/01/18 13:49:15;;;;;;;157.38;77.20;;;;;;;;;;4924217;29;20044;-82
2021/01/18 13:51:41;;;;;;;176.45;88.05;;;;;;;;;;4940318;29;20040;-79
2021/01/18 13:54:07;;;;;;;89.70;46.60;;;;;;;;;;4940500;29;20411;-84
2021/01/18 13:56:33;;;;;;;92.28;50.72;;;;;;;;;;4940607;29;20032;-79
2021/01/18 13:58:59;;;;;;;69.45;40.78;;;;;;;;;;4940534;29;20073;-81
2021/01/18 14:01:30;;;;;;;62.25;34.63;;;;;;;;;;4940170;29;20514;-82
2021/01/18 14:03:57;;;;;;;69.35;35.35;;;;;;;;;;4939579;29;20059;-79
2021/01/18 14:06:30;;;;;;;64.18;33.55;;;;;;;;;;4923122;29;20083;-81
2021/01/18 14:08:59;;;;;;;60.47;31.05;;;;;;;;;;4939463;29;20024;-82
2021/01/18 14:11:35;;;;;;;64.32;33.05;;;;;;;;;;4941200;29;20434;-80
2021/01/18 14:14:01;;;;;;;59.35;30.83;;;;;;;;;;4923248;29;20028;-80
2021/01/18 14:16:27;;;;;;;74.45;41.08;;;;;;;;;;4940473;29;20050;-79
2021/01/18 14:18:53;;;;;;;56.47;31.45;;;;;;;;;;4923446;29;20023;-80
2021/01/18 14:21:20;;;;;;;59.03;31.73;;;;;;;;;;4923497;29;20403;-79
2021/01/18 14:23:46;;;;;;;60.25;31.70;;;;;;;;;;4923578;29;20036;-78
2021/01/18 14:26:22;;;;;;;63.05;32.00;;;;;;;;;;4940162;29;20071;-80
2021/01/18 14:28:48;;;;;;;73.78;38.10;;;;;;;;;;4940044;29;20049;-80
2021/01/18 14:31:25;;;;;;;64.07;35.30;;;;;;;;;;4940199;29;20152;-82
2021/01/18 14:33:52;;;;;;;93.75;38.30;;;;;;;;;;4934722;29;20036;-81
2021/01/18 14:36:19;;;;;;;74.45;35.63;;;;;;;;;;4902312;29;20051;-81
2021/01/18 14:38:45;;;;;;;84.32;40.25;;;;;;;;;;4902178;29;20025;-82
2021/01/18 14:41:16;;;;;;;70.20;33.25;;;;;;;;;;4901908;29;20124;-81
2021/01/18 14:43:43;;;;;;;66.93;35.20;;;;;;;;;;4902113;29;20076;-80
2021/01/18 14:46:09;;;;;;;77.53;39.08;;;;;;;;;;4901966;29;20033;-81
2021/01/18 14:48:37;;;;;;;63.13;32.83;;;;;;;;;;4900827;29;20424;-82
2021/01/18 14:51:03;;;;;;;68.45;36.00;;;;;;;;;;4900281;29;20428;-82
2021/01/18 14:53:30;;;;;;;76.80;36.20;;;;;;;;;;4901387;29;20025;-79
2021/01/18 14:55:56;;;;;;;72.35;33.95;;;;;;;;;;4901839;29;20035;-82
2021/01/18 14:58:22;;;;;;;76.00;32.65;;;;;;;;;;4902029;29;20032;-80
2021/01/18 15:00:48;;;;;;;72.45;32.60;;;;;;;;;;4901794;29;20312;-80
2021/01/18 15:03:14;;;;;;;72.65;34.25;;;;;;;;;;4899645;29;20200;-80
2021/01/18 15:06:05;;;;;;;69.85;33.95;;;;;;;;;;4901672;29;20032;-80
2021/01/18 15:08:31;;;;;;;70.85;36.33;;;;;;;;;;4901773;29;20028;-82
2021/01/18 15:10:57;;;;;;;68.50;34.50;;;;;;;;;;4901758;29;20028;-81
2021/01/18 15:13:23;;;;;;;64.10;31.65;;;;;;;;;;4901658;29;20028;-80
2021/01/18 15:15:49;;;;;;;56.30;30.08;;;;;;;;;;4901702;29;20075;-80
2021/01/18 15:18:15;;;;;;;60.67;32.90;;;;;;;;;;4904783;29;20404;-81
2021/01/18 15:20:41;;;;;;;58.53;31.38;;;;;;;;;;4905384;29;20072;-82
2021/01/18 15:23:09;;;;;;;54.83;30.45;;;;;;;;;;4905342;29;20029;-79
2021/01/18 15:25:35;;;;;;;57.20;32.35;;;;;;;;;;4905541;29;20032;-81
2021/01/18 15:28:01;;;;;;;58.13;31.65;;;;;;;;;;4905420;29;20333;-80
2021/01/18 15:30:27;;;;;;;105.50;45.38;;;;;;;;;;4905387;29;20111;-79
2021/01/18 15:36:09;;;;;;;79.75;39.45;;;;;;;;;;4905162;29;20048;-81
2021/01/18 15:38:36;;;;;;;69.32;34.67;;;;;;;;;;4905275;29;20052;-81
2021/01/18 15:41:03;;;;;;;60.42;31.90;;;;;;;;;;4905259;29;20096;-79
2021/01/18 15:43:29;;;;;;;60.95;33.38;;;;;;;;;;4905198;29;20027;-82
2021/01/18 15:45:55;;;;;;;68.00;34.25;;;;;;;;;;4904946;29;20017;-81
2021/01/18 15:48:21;;;;;;;60.92;30.17;;;;;;;;;;4904852;29;20027;-80
2021/01/18 15:50:47;;;;;;;58.60;28.95;;;;;;;;;;4904853;29;20025;-80
2021/01/18 15:53:13;;;;;;;65.40;31.05;;;;;;;;;;4904633;29;20111;-81
2021/01/18 15:55:39;;;;;;;68.47;32.08;;;;;;;;;;4904590;29;20067;-80
2021/01/18 15:58:05;;;;;;;73.70;35.03;;;;;;;;;;4904595;29;20028;-80
2021/01/18 16:00:31;;;;;;;88.50;31.08;;;;;;;;;;4903534;29;20033;-80
2021/01/18 16:02:57;;;;;;;61.22;28.95;;;;;;;;;;4904058;29;20032;-79
2021/01/18 16:05:23;;;;;;;62.75;31.13;;;;;;;;;;4904421;29;20119;-79
2021/01/18 16:07:49;;;;;;;59.00;27.77;;;;;;;;;;4903025;29;20028;-80
2021/01/18 16:10:16;;;;;;;53.75;26.73;;;;;;;;;;4902823;29;20089;-81
2021/01/18 16:12:42;;;;;;;58.55;29.83;;;;;;;;;;4904038;29;20028;-81
2021/01/18 16:15:09;;;;;;;60.70;30.20;;;;;;;;;;4903327;29;20073;-82
2021/01/18 16:17:36;;;;;;;74.50;35.85;;;;;;;;;;4904004;29;20028;-81
2021/01/18 16:20:02;;;;;;;93.15;39.65;;;;;;;;;;4904618;29;20031;-79
2021/01/18 16:22:28;;;;;;;95.05;42.53;;;;;;;;;;4903958;29;20021;-80
2021/01/18 16:24:54;;;;;;;82.30;37.13;;;;;;;;;;4904387;29;20123;-82
2021/01/18 16:27:40;;;;;;;84.20;40.42;;;;;;;;;;4903923;29;20029;-80
2021/01/18 16:30:08;;;;;;;92.50;42.70;;;;;;;;;;4904129;29;20039;-83
2021/01/18 16:32:35;;;;;;;69.38;35.33;;;;;;;;;;4903628;29;20487;-81
2021/01/18 16:35:04;;;;;;;76.40;37.00;;;;;;;;;;4901615;29;20078;-82
2021/01/18 16:37:30;;;;;;;76.30;36.60;;;;;;;;;;4921689;29;20044;-82
2021/01/18 16:39:56;;;;;;;79.93;38.55;;;;;;;;;;4922948;29;20024;-78
2021/01/18 16:42:22;;;;;;;85.03;39.85;;;;;;;;;;4922798;29;20075;-81
2021/01/18 16:44:48;;;;;;;92.18;41.58;;;;;;;;;;4921765;29;20363;-81
2021/01/18 16:47:14;;;;;;;81.53;39.28;;;;;;;;;;4922701;29;20055;-82
2021/01/18 16:49:40;;;;;;;93.63;43.05;;;;;;;;;;4922714;29;20040;-80
2021/01/18 16:52:07;;;;;;;105.20;48.85;;;;;;;;;;4922666;29;20323;-80
2021/01/18 16:54:33;;;;;;;214.25;74.85;;;;;;;;;;4921631;29;20031;-82
2021/01/18 16:57:00;;;;;;;97.55;42.38;;;;;;;;;;4922456;29;20368;-80
2021/01/18 16:59:26;;;;;;;176.80;61.55;;;;;;;;;;4922690;29;20020;-82
2021/01/18 17:01:59;;;;;;;134.15;52.67;;;;;;;;;;4922412;29;20035;-80
2021/01/18 17:04:25;;;;;;;117.65;46.10;;;;;;;;;;4922257;29;20296;-80
2021/01/18 17:06:51;;;;;;;110.95;45.78;;;;;;;;;;4922267;29;20028;-81
2021/01/18 17:09:19;;;;;;;94.03;39.97;;;;;;;;;;4922599;29;20043;-80
2021/01/18 17:11:46;;;;;;;133.25;54.58;;;;;;;;;;4916523;29;20082;-82
2021/01/18 17:14:12;;;;;;;141.05;57.53;;;;;;;;;;4916758;29;20024;-81
2021/01/18 17:16:38;;;;;;;181.38;71.65;;;;;;;;;;4921210;29;20327;-82
2021/01/18 17:19:07;;;;;;;152.57;60.83;;;;;;;;;;4921209;29;20035;-80
2021/01/18 17:21:33;;;;;;;164.45;65.20;;;;;;;;;;4922004;29;20084;-83
2021/01/18 17:23:59;;;;;;;132.75;54.42;;;;;;;;;;4921361;29;20035;-80
2021/01/18 17:26:27;;;;;;;110.53;48.00;;;;;;;;;;4922432;29;20034;-86
2021/01/18 17:28:56;;;;;;;81.82;41.30;;;;;;;;;;4921922;29;20300;-78
2021/01/18 17:31:28;;;;;;;74.97;38.50;;;;;;;;;;4920654;29;20046;-81
2021/01/18 17:33:54;;;;;;;;;;;;;;;;;;4923951;29;20079;-79
2021/01/18 17:36:24;;;;;;;73.43;35.50;;;;;;;;;;4940884;29;20328;-80
2021/01/18 17:38:50;;;;;;;94.20;43.25;;;;;;;;;;4940620;29;20102;-79
2021/01/18 17:41:16;;;;;;;104.35;45.42;;;;;;;;;;4940682;29;20088;-82
2021/01/18 17:43:42;;;;;;;151.75;59.85;;;;;;;;;;4940539;29;20059;-80
2021/01/18 17:46:08;;;;;;;126.93;55.00;;;;;;;;;;4923794;29;20027;-81
2021/01/18 17:48:34;;;;;;;99.28;42.90;;;;;;;;;;4940622;29;20461;-80
2021/01/18 17:51:04;;;;;;;84.32;39.67;;;;;;;;;;4940487;29;20039;-79
2021/01/18 17:53:30;;;;;;;74.10;39.35;;;;;;;;;;4940575;29;20144;-79
2021/01/18 17:55:56;;;;;;;77.63;39.15;;;;;;;;;;4940503;29;20031;-81
2021/01/18 17:58:22;;;;;;;73.35;38.08;;;;;;;;;;4940165;29;20032;-80
2021/01/18 18:00:48;;;;;;;94.28;42.72;;;;;;;;;;4940474;29;20303;-79
2021/01/18 18:03:14;;;;;;;112.18;50.30;;;;;;;;;;4940580;29;20295;-79
2021/01/18 18:05:44;;;;;;;120.43;53.10;;;;;;;;;;4940339;29;20131;-81
2021/01/18 18:08:10;;;;;;;117.20;52.42;;;;;;;;;;4939981;29;20038;-80
2021/01/18 18:10:36;;;;;;;126.03;55.05;;;;;;;;;;4940212;29;20411;-80
2021/01/18 18:13:02;;;;;;;122.22;53.95;;;;;;;;;;4939883;29;20329;-80
2021/01/18 18:15:28;;;;;;;110.30;46.90;;;;;;;;;;4939928;29;20403;-78
2021/01/18 18:17:54;;;;;;;94.00;45.72;;;;;;;;;;4940309;29;20031;-79
2021/01/18 18:20:21;;;;;;;125.10;48.70;;;;;;;;;;4940300;29;20039;-79
2021/01/18 18:22:48;;;;;;;106.35;45.60;;;;;;;;;;4940205;29;20027;-79
2021/01/18 18:25:14;;;;;;;154.65;56.65;;;;;;;;;;4923245;29;20038;-80
2021/01/18 18:27:41;;;;;;;210.93;77.97;;;;;;;;;;4922695;29;20039;-80
2021/01/18 18:30:08;;;;;;;207.18;76.70;;;;;;;;;;4940047;29;20322;-79
2021/01/18 18:32:34;;;;;;;261.58;89.82;;;;;;;;;;4939875;29;20453;-80
2021/01/18 18:35:00;;;;;;;272.58;95.53;;;;;;;;;;4939759;29;20054;-80
2021/01/18 18:37:26;;;;;;;282.80;101.53;;;;;;;;;;4939873;29;20418;-80
2021/01/18 18:39:55;;;;;;;188.43;74.28;;;;;;;;;;4939829;29;20032;-80
2021/01/18 18:42:21;;;;;;;167.77;70.32;;;;;;;;;;4939760;29;20031;-80
2021/01/18 18:44:47;;;;;;;185.43;80.50;;;;;;;;;;4939779;29;20039;-78
2021/01/18 18:47:13;;;;;;;173.90;76.00;;;;;;;;;;4939744;29;20028;-78
2021/01/18 18:49:39;;;;;;;138.48;67.35;;;;;;;;;;4939778;29;20034;-80
2021/01/18 18:52:05;;;;;;;100.43;50.10;;;;;;;;;;4938720;29;20054;-78
2021/01/18 18:54:31;;;;;;;129.00;56.15;;;;;;;;;;4939731;29;20071;-78
2021/01/18 18:56:59;;;;;;;117.40;54.72;;;;;;;;;;4939673;29;20108;-79
2021/01/18 18:59:26;;;;;;;101.13;48.90;;;;;;;;;;4939488;29;20027;-80
2021/01/18 19:01:52;;;;;;;76.47;41.42;;;;;;;;;;4939670;29;20461;-78
2021/01/18 19:04:18;;;;;;;82.45;41.38;;;;;;;;;;4922786;29;20419;-78
2021/01/18 19:06:44;;;;;;;74.47;37.80;;;;;;;;;;4922686;29;20114;-80
2021/01/18 19:09:10;;;;;;;72.07;36.55;;;;;;;;;;4939532;29;20132;-78
2021/01/18 19:11:36;;;;;;;74.85;37.22;;;;;;;;;;4939318;29;20403;-78
2021/01/18 19:14:02;;;;;;;78.18;38.30;;;;;;;;;;4939808;29;20035;-79
2021/01/18 19:16:28;;;;;;;98.68;45.83;;;;;;;;;;4922049;29;20039;-79
2021/01/18 19:18:54;;;;;;;111.53;51.10;;;;;;;;;;4939423;29;20152;-80
2021/01/18 19:21:20;;;;;;;116.15;52.75;;;;;;;;;;4939271;29;20304;-78
2021/01/18 19:23:46;;;;;;;87.65;44.15;;;;;;;;;;4938944;29;20174;-80
2021/01/18 19:26:19;;;;;;;90.78;43.80;;;;;;;;;;4922391;29;20043;-79
2021/01/18 19:28:45;;;;;;;;;;;;;;;;;;4922274;29;20043;-78
2021/01/18 19:31:24;;;;;;;131.10;57.03;;;;;;;;;;4939594;29;19910;-80
2021/01/18 19:33:51;;;;;;;151.43;55.95;;;;;;;;;;4939135;29;20102;-77
2021/01/18 19:36:21;;;;;;;217.73;73.38;;;;;;;;;;4938999;29;20020;-77
2021/01/18 19:38:47;;;;;;;272.77;91.05;;;;;;;;;;4936325;29;20020;-78
2021/01/18 19:41:20;;;;;;;256.08;88.00;;;;;;;;;;4938495;29;20307;-78
2021/01/18 19:43:46;;;;;;;;;;;;;;;;;;4937698;29;20020;-80
2021/01/18 19:46:12;;;;;;;190.60;64.00;;;;;;;;;;4938573;29;19910;-77
2021/01/18 19:48:38;;;;;;;206.75;67.70;;;;;;;;;;4938645;29;20410;-77
2021/01/18 19:51:05;;;;;;;255.02;82.95;;;;;;;;;;4938171;29;20034;-79
2021/01/18 19:53:31;;;;;;;263.15;82.60;;;;;;;;;;4938557;29;20020;-78
2021/01/18 19:55:57;;;;;;;294.08;84.20;;;;;;;;;;4938644;29;20024;-79
2021/01/18 19:58:23;;;;;;;266.08;81.75;;;;;;;;;;4938509;29;20043;-79
2021/01/18 20:00:49;;;;;;;278.27;89.40;;;;;;;;;;4938914;29;20058;-78
2021/01/18 20:03:15;;;;;;;218.77;90.80;;;;;;;;;;4940472;29;20047;-77
2021/01/18 20:05:41;;;;;;;228.65;96.18;;;;;;;;;;4924158;29;20422;-78
2021/01/18 20:08:07;;;;;;;257.42;120.40;;;;;;;;;;4941054;29;20075;-78
2021/01/18 20:10:33;;;;;;;239.48;100.55;;;;;;;;;;4942210;29;20119;-77
2021/01/18 20:12:59;;;;;;;247.35;107.13;;;;;;;;;;4940979;29;20039;-77
2021/01/18 20:15:26;;;;;;;283.95;122.45;;;;;;;;;;4941697;29;20023;-79
2021/01/18 20:17:52;;;;;;;278.17;129.73;;;;;;;;;;4941722;29;20028;-79
2021/01/18 20:20:18;;;;;;;327.88;162.30;;;;;;;;;;4941483;29;20425;-81
2021/01/18 20:22:44;;;;;;;255.77;122.82;;;;;;;;;;4924948;29;20493;-78
2021/01/18 20:25:11;;;;;;;267.92;130.07;;;;;;;;;;4925758;29;20131;-79
2021/01/18 20:27:37;;;;;;;357.52;152.85;;;;;;;;;;4935899;29;20054;-78
2021/01/18 20:30:04;;;;;;;368.38;177.57;;;;;;;;;;4905415;29;20055;-77
2021/01/18 20:32:30;;;;;;;201.00;89.43;;;;;;;;;;4932524;29;20027;-77
2021/01/18 20:34:56;;;;;;;144.35;66.88;;;;;;;;;;4922420;29;20092;-78
2021/01/18 20:37:22;;;;;;;170.10;67.20;;;;;;;;;;4918215;29;20035;-77
2021/01/18 20:39:48;;;;;;;145.63;61.08;;;;;;;;;;4937316;29;20086;-79
2021/01/18 20:42:16;;;;;;;165.15;66.40;;;;;;;;;;4939306;29;20423;-78
2021/01/18 20:44:43;;;;;;;145.38;58.25;;;;;;;;;;4940943;29;20406;-78
2021/01/18 20:47:10;;;;;;;151.15;59.45;;;;;;;;;;4923798;29;20056;-78
2021/01/18 20:49:38;;;;;;;206.80;81.70;;;;;;;;;;4940651;29;20072;-78
2021/01/18 20:52:04;;;;;;;258.08;98.63;;;;;;;;;;4924302;29;20430;-77
2021/01/18 20:54:30;;;;;;;217.98;79.60;;;;;;;;;;4940826;29;20418;-78
2021/01/18 20:56:57;;;;;;;202.02;72.90;;;;;;;;;;4941080;29;20035;-77
2021/01/18 20:59:26;;;;;;;170.10;62.72;;;;;;;;;;4940766;29;20020;-77
2021/01/18 21:01:52;;;;;;;141.18;56.75;;;;;;;;;;4926368;29;20441;-77
2021/01/18 21:04:18;;;;;;;133.40;55.42;;;;;;;;;;4933085;29;20031;-78
2021/01/18 21:06:45;;;;;;;124.00;59.05;;;;;;;;;;4923733;29;20107;-76
2021/01/18 21:09:11;;;;;;;119.13;56.78;;;;;;;;;;4920691;29;20036;-77
2021/01/18 21:11:41;;;;;;;137.90;73.50;;;;;;;;;;4939937;29;20039;-79
2021/01/18 21:14:07;;;;;;;183.50;95.72;;;;;;;;;;4938867;29;20087;-78
2021/01/18 21:16:34;;;;;;;231.60;115.95;;;;;;;;;;4940029;29;20437;-77
2021/01/18 21:19:02;;;;;;;233.05;112.68;;;;;;;;;;4938965;29;20039;-79
2021/01/18 21:21:28;;;;;;;272.77;127.85;;;;;;;;;;4939631;29;20029;-77
2021/01/18 21:23:57;;;;;;;314.05;141.60;;;;;;;;;;4939900;29;20066;-77
2021/01/18 21:26:23;;;;;;;289.40;127.95;;;;;;;;;;4940106;29;20035;-77
2021/01/18 21:28:58;;;;;;;290.20;129.32;;;;;;;;;;4940557;29;20356;-78
2021/01/18 21:31:24;;;;;;;245.57;112.57;;;;;;;;;;4937603;29;20312;-78
2021/01/18 21:33:50;;;;;;;274.45;124.97;;;;;;;;;;4940426;29;20032;-77
2021/01/18 21:36:16;;;;;;;283.40;125.50;;;;;;;;;;4930775;29;20063;-77
2021/01/18 21:38:45;;;;;;;193.07;93.93;;;;;;;;;;4923629;29;20331;-77
2021/01/18 21:41:20;;;;;;;160.20;80.45;;;;;;;;;;4940069;29;20102;-77
2021/01/18 21:43:46;;;;;;;142.68;69.95;;;;;;;;;;4920828;29;20054;-79
2021/01/18 21:46:13;;;;;;;177.88;92.28;;;;;;;;;;4926718;29;20024;-78
2021/01/18 21:48:39;;;;;;;188.65;91.90;;;;;;;;;;4936999;29;20429;-77
2021/01/18 21:51:05;;;;;;;218.23;95.35;;;;;;;;;;4939749;29;20035;-78
2021/01/18 21:53:31;;;;;;;138.73;59.42;;;;;;;;;;4940121;29;20032;-78
2021/01/18 21:55:57;;;;;;;109.20;50.38;;;;;;;;;;4939558;29;20055;-79
2021/01/18 21:58:23;;;;;;;103.22;44.70;;;;;;;;;;4936537;29;20031;-79
2021/01/18 22:00:49;;;;;;;103.00;48.97;;;;;;;;;;4919504;29;20031;-77
2021/01/18 22:03:15;;;;;;;79.85;39.00;;;;;;;;;;4939747;29;20043;-77
2021/01/18 22:05:42;;;;;;;98.68;48.40;;;;;;;;;;4939334;29;20126;-76
2021/01/18 22:08:08;;;;;;;105.55;53.72;;;;;;;;;;4939598;29;20040;-77
2021/01/18 22:10:34;;;;;;;101.78;50.70;;;;;;;;;;4920450;29;20050;-77
2021/01/18 22:13:00;;;;;;;82.50;37.85;;;;;;;;;;4921930;29;20032;-91
2021/01/18 22:15:26;;;;;;;81.45;38.20;;;;;;;;;;4941021;29;20031;-89
2021/01/18 22:17:52;;;;;;;75.07;36.75;;;;;;;;;;4924002;29;20031;-90
2021/01/18 22:20:18;;;;;;;80.07;36.28;;;;;;;;;;4940750;29;20020;-90
2021/01/18 22:22:44;;;;;;;77.07;38.97;;;;;;;;;;4940497;29;20449;-90
2021/01/18 22:25:10;;;;;;;76.30;37.85;;;;;;;;;;4923290;29;20408;-91
2021/01/18 22:27:38;;;;;;;77.63;38.15;;;;;;;;;;4923657;29;20067;-90
2021/01/18 22:30:05;;;;;;;71.72;35.22;;;;;;;;;;4940649;29;20039;-92
2021/01/18 22:32:33;;;;;;;67.68;35.80;;;;;;;;;;4940621;29;20075;-89
2021/01/18 22:34:59;;;;;;;68.80;34.67;;;;;;;;;;4923196;29;20119;-91
2021/01/18 22:37:25;;;;;;;63.22;31.30;;;;;;;;;;4940111;29;20027;-91
2021/01/18 22:39:51;;;;;;;62.17;31.67;;;;;;;;;;4923469;29;20034;-90
2021/01/18 22:42:17;;;;;;;64.63;32.28;;;;;;;;;;4940495;29;20028;-92
2021/01/18 22:48:02;;;;;;;61.88;32.05;;;;;;;;;;4940219;29;20051;-91
2021/01/18 22:50:28;;;;;;;55.65;28.80;;;;;;;;;;4940093;29;20039;-91
2021/01/18 22:52:54;;;;;;;61.67;30.70;;;;;;;;;;4939817;29;20038;-90
2021/01/18 22:55:20;;;;;;;60.00;31.80;;;;;;;;;;4939055;29;20075;-91
2021/01/18 22:57:46;;;;;;;58.78;32.72;;;;;;;;;;4939814;29;20438;-90
2021/01/18 23:00:13;;;;;;;65.18;34.45;;;;;;;;;;4935210;29;20066;-90
2021/01/18 23:02:40;;;;;;;66.40;36.45;;;;;;;;;;4929640;29;20027;-91
2021/01/18 23:05:07;;;;;;;70.22;36.00;;;;;;;;;;4939916;29;20445;-91
2021/01/18 23:07:33;;;;;;;75.85;36.47;;;;;;;;;;4923499;29;20055;-91
2021/01/18 23:09:59;;;;;;;86.00;38.40;;;;;;;;;;4940749;29;20056;-91
2021/01/18 23:12:25;;;;;;;71.40;35.05;;;;;;;;;;4939387;29;20075;-88
2021/01/18 23:14:51;;;;;;;62.40;33.72;;;;;;;;;;4923407;29;20032;-91
2021/01/18 23:17:17;;;;;;;70.05;35.55;;;;;;;;;;4923650;29;20330;-91
2021/01/18 23:19:43;;;;;;;74.68;36.67;;;;;;;;;;4923424;29;20027;-92
2021/01/18 23:22:12;;;;;;;75.57;34.72;;;;;;;;;;4940453;29;20079;-95
2021/01/18 23:24:38;;;;;;;74.53;36.63;;;;;;;;;;4922623;29;20036;-94
2021/01/18 23:27:05;;;;;;;82.75;38.15;;;;;;;;;;4923843;29;20096;-91
2021/01/18 23:29:31;;;;;;;83.32;39.47;;;;;;;;;;4941308;29;20028;-96
2021/01/18 23:31:57;;;;;;;77.63;36.67;;;;;;;;;;4940088;29;20425;-94
2021/01/18 23:34:23;;;;;;;72.53;33.67;;;;;;;;;;4922875;29;20131;-93
2021/01/18 23:36:50;;;;;;;68.60;32.03;;;;;;;;;;4940219;29;20032;-93
2021/01/18 23:39:16;;;;;;;68.97;32.90;;;;;;;;;;4943282;29;20075;-95
2021/01/18 23:41:43;;;;;;;65.82;30.25;;;;;;;;;;4943877;29;20027;-95
2021/01/18 23:44:09;;;;;;;75.70;30.63;;;;;;;;;;4928345;29;20039;-94
2021/01/18 23:46:35;;;;;;;85.68;32.75;;;;;;;;;;4926815;29;20079;-94
2021/01/18 23:49:01;;;;;;;75.80;31.65;;;;;;;;;;4943719;29;20304;-94
2021/01/18 23:51:27;;;;;;;66.25;30.17;;;;;;;;;;4943811;29;20028;-94